createdAt,value
2017-10-05T00:00:42.920Z,14.89
2017-10-05T00:01:42.941Z,14.94
2017-10-05T00:02:42.966Z,14.81
2017-10-05T00:03:42.981Z,14.96
2017-10-05T00:04:43.001Z,14.92
2017-10-05T00:05:43.023Z,14.81
2017-10-05T00:06:43.041Z,14.84
2017-10-05T00:07:43.072Z,14.86
2017-10-05T00:08:43.086Z,14.85
2017-10-05T00:09:43.110Z,14.84
2017-10-05T00:10:43.136Z,14.78
2017-10-05T00:11:43.151Z,14.79
2017-10-05T00:12:43.176Z,14.96
2017-10-05T00:13:43.505Z,14.84
2017-10-05T00:14:43.214Z,14.82
2017-10-05T00:15:43.237Z,14.79
2017-10-05T00:16:43.280Z,14.63
2017-10-05T00:17:43.279Z,14.65
2017-10-05T00:18:43.292Z,14.6
2017-10-05T00:19:43.318Z,14.72
2017-10-05T00:20:43.338Z,14.73
2017-10-05T00:21:43.358Z,14.79
2017-10-05T00:22:43.374Z,14.77
2017-10-05T00:23:43.402Z,14.77
2017-10-05T00:24:43.414Z,14.82
2017-10-05T00:25:43.435Z,14.86
2017-10-05T00:26:43.467Z,14.94
2017-10-05T00:27:43.525Z,14.85
2017-10-05T00:28:43.494Z,14.82
2017-10-05T00:30:09.256Z,14.82
2017-10-05T00:30:43.842Z,14.84
2017-10-05T00:31:43.566Z,14.72
2017-10-05T00:32:43.601Z,14.78
2017-10-05T00:33:43.911Z,14.79
2017-10-05T00:34:43.835Z,14.86
2017-10-05T00:35:43.982Z,14.84
2017-10-05T00:36:43.659Z,14.85
2017-10-05T00:37:43.679Z,14.85
2017-10-05T00:38:43.705Z,14.94
2017-10-05T00:39:43.717Z,14.85
2017-10-05T00:40:43.744Z,14.86
2017-10-05T00:41:44.072Z,14.86
2017-10-05T00:42:44.143Z,14.85
2017-10-05T00:43:43.801Z,14.89
2017-10-05T00:44:43.823Z,14.88
2017-10-05T00:45:43.838Z,14.86
2017-10-05T00:46:43.867Z,15.02
2017-10-05T00:47:43.884Z,15
2017-10-05T00:48:43.910Z,15.07
2017-10-05T00:49:43.922Z,15.07
2017-10-05T00:50:43.944Z,15
2017-10-05T00:51:43.967Z,14.92
2017-10-05T00:52:43.980Z,14.97
2017-10-05T00:53:44.017Z,14.97
2017-10-05T00:54:44.028Z,14.88
2017-10-05T00:55:44.048Z,14.89
2017-10-05T00:56:44.062Z,14.97
2017-10-05T00:57:44.140Z,14.86
2017-10-05T00:58:44.110Z,15.02
2017-10-05T00:59:44.125Z,14.92
2017-10-05T01:00:44.458Z,14.88
2017-10-05T01:01:44.176Z,14.94
2017-10-05T01:02:44.192Z,14.96
2017-10-05T01:03:44.520Z,14.88
2017-10-05T01:04:44.226Z,14.88
2017-10-05T01:05:44.265Z,14.86
2017-10-05T01:06:44.270Z,14.97
2017-10-05T01:07:44.296Z,15.03
2017-10-05T01:08:44.316Z,15.04
2017-10-05T01:09:44.663Z,15.07
2017-10-05T01:10:44.353Z,15.22
2017-10-05T01:11:44.374Z,15.18
2017-10-05T01:12:44.449Z,15.22
2017-10-05T01:13:44.414Z,15.21
2017-10-05T01:14:44.442Z,15.27
2017-10-05T01:15:44.763Z,15.28
2017-10-05T01:16:44.484Z,15.28
2017-10-05T01:17:44.806Z,15.31
2017-10-05T01:18:44.526Z,15.35
2017-10-05T01:19:44.540Z,15.4
2017-10-05T01:20:44.557Z,15.33
2017-10-05T01:21:44.583Z,15.18
2017-10-05T01:22:44.598Z,15.19
2017-10-05T01:23:44.621Z,15.11
2017-10-05T01:24:44.646Z,15.24
2017-10-05T01:25:44.670Z,15.22
2017-10-05T01:26:44.682Z,15.02
2017-10-05T01:27:44.709Z,15.07
2017-10-05T01:28:44.721Z,14.94
2017-10-05T01:29:44.744Z,15.07
2017-10-05T01:30:44.820Z,15.19
2017-10-05T01:31:45.587Z,15.19
2017-10-05T01:32:45.193Z,15.06
2017-10-05T01:33:44.829Z,15.14
2017-10-05T01:34:44.850Z,15.1
2017-10-05T01:35:44.869Z,15.19
2017-10-05T01:36:45.206Z,15.15
2017-10-05T01:37:44.916Z,15.15
2017-10-05T01:38:44.931Z,15.25
2017-10-05T01:39:44.951Z,15.33
2017-10-05T01:40:44.972Z,15.37
2017-10-05T01:41:45.001Z,15.36
2017-10-05T01:42:45.014Z,15.39
2017-10-05T01:43:45.037Z,15.35
2017-10-05T01:44:45.058Z,15.36
2017-10-05T01:45:45.439Z,15.44
2017-10-05T01:46:45.435Z,15.49
2017-10-05T01:47:45.133Z,15.49
2017-10-05T01:48:45.147Z,15.31
2017-10-05T01:49:45.159Z,15.33
2017-10-05T01:50:45.186Z,15.31
2017-10-05T01:51:45.200Z,15.03
2017-10-05T01:52:45.225Z,15.18
2017-10-05T01:53:45.248Z,15.18
2017-10-05T01:54:45.262Z,15.1
2017-10-05T01:55:45.281Z,15.15
2017-10-05T01:56:45.302Z,15.29
2017-10-05T01:57:45.324Z,15.35
2017-10-05T01:58:45.344Z,15.42
2017-10-05T01:59:45.363Z,15.4
2017-10-05T02:00:45.697Z,15.52
2017-10-05T02:01:45.462Z,15.54
2017-10-05T02:02:45.432Z,15.37
2017-10-05T02:03:45.461Z,15.51
2017-10-05T02:04:45.468Z,15.58
2017-10-05T02:05:45.491Z,15.52
2017-10-05T02:06:45.509Z,15.49
2017-10-05T02:07:45.532Z,15.49
2017-10-05T02:08:45.550Z,15.44
2017-10-05T02:09:45.605Z,15.4
2017-10-05T02:10:45.595Z,15.46
2017-10-05T02:11:45.619Z,15.54
2017-10-05T02:12:45.640Z,15.47
2017-10-05T02:13:45.663Z,15.43
2017-10-05T02:14:45.674Z,15.35
2017-10-05T02:15:45.695Z,15.35
2017-10-05T02:16:45.718Z,15.31
2017-10-05T02:17:46.106Z,15.37
2017-10-05T02:18:45.763Z,15.37
2017-10-05T02:19:45.779Z,15.49
2017-10-05T02:20:45.798Z,15.42
2017-10-05T02:21:45.821Z,15.44
2017-10-05T02:22:45.839Z,15.49
2017-10-05T02:23:45.864Z,15.47
2017-10-05T02:24:45.888Z,15.43
2017-10-05T02:25:45.920Z,15.57
2017-10-05T02:26:45.926Z,15.57
2017-10-05T02:27:45.945Z,15.58
2017-10-05T02:28:45.976Z,15.59
2017-10-05T02:29:46.300Z,15.67
2017-10-05T02:30:46.010Z,15.57
2017-10-05T02:31:46.034Z,15.57
2017-10-05T02:32:46.468Z,15.72
2017-10-05T02:33:46.070Z,15.79
2017-10-05T02:34:46.090Z,15.72
2017-10-05T02:35:46.113Z,15.76
2017-10-05T02:36:46.131Z,15.8
2017-10-05T02:37:46.462Z,15.83
2017-10-05T02:38:46.489Z,15.73
2017-10-05T02:39:46.203Z,15.76
2017-10-05T02:40:46.216Z,15.77
2017-10-05T02:41:46.246Z,15.67
2017-10-05T02:42:46.260Z,15.79
2017-10-05T02:43:46.281Z,15.88
2017-10-05T02:44:46.333Z,15.73
2017-10-05T02:45:46.338Z,15.7
2017-10-05T02:46:46.354Z,15.82
2017-10-05T02:47:46.417Z,15.76
2017-10-05T02:48:46.386Z,15.88
2017-10-05T02:49:46.407Z,15.76
2017-10-05T02:50:46.432Z,15.76
2017-10-05T02:51:46.449Z,15.7
2017-10-05T02:52:46.470Z,15.83
2017-10-05T02:53:46.506Z,15.76
2017-10-05T02:54:46.514Z,15.84
2017-10-05T02:55:46.851Z,15.97
2017-10-05T02:56:46.558Z,15.88
2017-10-05T02:57:46.579Z,15.92
2017-10-05T02:58:46.597Z,15.91
2017-10-05T02:59:46.616Z,15.77
2017-10-05T03:00:46.952Z,15.9
2017-10-05T03:01:46.656Z,15.92
2017-10-05T03:02:46.732Z,15.98
2017-10-05T03:03:46.707Z,16.02
2017-10-05T03:04:47.037Z,16.09
2017-10-05T03:05:46.743Z,16.04
2017-10-05T03:06:46.763Z,15.97
2017-10-05T03:07:46.793Z,16.12
2017-10-05T03:08:46.815Z,16.1
2017-10-05T03:09:47.138Z,16.2
2017-10-05T03:10:46.850Z,16.12
2017-10-05T03:11:47.203Z,16.13
2017-10-05T03:12:46.895Z,16.15
2017-10-05T03:13:46.912Z,16.1
2017-10-05T03:14:46.936Z,16.2
2017-10-05T03:15:46.956Z,16.16
2017-10-05T03:16:46.984Z,16.2
2017-10-05T03:17:47.004Z,16.23
2017-10-05T03:18:47.078Z,16.1
2017-10-05T03:19:47.046Z,16.09
2017-10-05T03:20:47.065Z,16.04
2017-10-05T03:21:47.096Z,16.05
2017-10-05T03:22:47.108Z,15.91
2017-10-05T03:23:47.135Z,15.98
2017-10-05T03:24:47.149Z,15.94
2017-10-05T03:25:47.485Z,15.8
2017-10-05T03:26:47.209Z,15.76
2017-10-05T03:27:47.216Z,15.73
2017-10-05T03:28:47.247Z,15.8
2017-10-05T03:29:47.259Z,15.76
2017-10-05T03:30:47.288Z,15.79
2017-10-05T03:31:47.303Z,15.59
2017-10-05T03:32:47.326Z,15.57
2017-10-05T03:33:47.401Z,15.58
2017-10-05T03:34:47.365Z,15.59
2017-10-05T03:35:47.388Z,15.52
2017-10-05T03:36:47.410Z,15.46
2017-10-05T03:37:47.430Z,15.47
2017-10-05T03:38:47.455Z,15.46
2017-10-05T03:39:47.470Z,15.44
2017-10-05T03:40:47.492Z,15.33
2017-10-05T03:41:47.516Z,15.37
2017-10-05T03:42:47.539Z,15.33
2017-10-05T03:43:47.558Z,15.22
2017-10-05T03:44:47.574Z,15.25
2017-10-05T03:45:47.596Z,15.04
2017-10-05T03:46:47.619Z,15.1
2017-10-05T03:47:47.641Z,15.17
2017-10-05T03:48:48.024Z,15.06
2017-10-05T03:49:47.684Z,15.1
2017-10-05T03:50:47.711Z,15.09
2017-10-05T03:51:47.724Z,15.14
2017-10-05T03:52:48.073Z,15.17
2017-10-05T03:53:47.766Z,15.18
2017-10-05T03:54:47.787Z,15.22
2017-10-05T03:55:47.812Z,15.29
2017-10-05T03:56:47.832Z,15.29
2017-10-05T03:57:47.853Z,15.29
2017-10-05T03:58:47.876Z,15.25
2017-10-05T03:59:47.892Z,15.36
2017-10-05T04:00:47.913Z,15.18
2017-10-05T04:01:47.937Z,15.11
2017-10-05T04:02:47.958Z,15.21
2017-10-05T04:03:48.028Z,15.09
2017-10-05T04:04:47.999Z,15.02
2017-10-05T04:05:48.040Z,15.04
2017-10-05T04:06:48.036Z,15
2017-10-05T04:07:48.057Z,14.89
2017-10-05T04:08:48.393Z,15
2017-10-05T04:09:48.099Z,15.03
2017-10-05T04:10:48.134Z,14.97
2017-10-05T04:11:48.148Z,14.91
2017-10-05T04:12:48.169Z,15.03
2017-10-05T04:13:48.190Z,15.06
2017-10-05T04:14:48.201Z,15
2017-10-05T04:15:48.229Z,15
2017-10-05T04:16:48.257Z,14.91
2017-10-05T04:17:48.276Z,14.94
2017-10-05T04:18:48.342Z,14.89
2017-10-05T04:19:48.309Z,14.97
2017-10-05T04:20:48.335Z,15.04
2017-10-05T04:21:48.351Z,15.04
2017-10-05T04:22:48.371Z,15
2017-10-05T04:23:48.702Z,15.04
2017-10-05T04:24:48.412Z,14.96
2017-10-05T04:25:48.433Z,14.89
2017-10-05T04:26:48.458Z,14.85
2017-10-05T04:27:48.474Z,14.88
2017-10-05T04:28:48.495Z,14.94
2017-10-05T04:29:48.519Z,14.84
2017-10-05T04:30:48.537Z,14.94
2017-10-05T04:31:48.872Z,14.84
2017-10-05T04:32:48.581Z,14.85
2017-10-05T04:33:48.655Z,14.77
2017-10-05T04:34:48.942Z,14.79
2017-10-05T04:35:48.958Z,14.88
2017-10-05T04:36:48.665Z,14.79
2017-10-05T04:37:48.683Z,14.81
2017-10-05T04:38:48.704Z,14.81
2017-10-05T04:39:48.724Z,14.73
2017-10-05T04:40:48.747Z,14.85
2017-10-05T04:41:48.770Z,14.77
2017-10-05T04:42:48.784Z,14.65
2017-10-05T04:43:48.826Z,14.62
2017-10-05T04:44:48.832Z,14.63
2017-10-05T04:45:48.851Z,14.63
2017-10-05T04:46:48.865Z,14.72
2017-10-05T04:47:48.891Z,14.65
2017-10-05T04:48:49.273Z,14.65
2017-10-05T04:49:48.927Z,14.78
2017-10-05T04:50:48.955Z,14.72
2017-10-05T04:51:48.973Z,14.73
2017-10-05T04:52:48.989Z,14.62
2017-10-05T04:53:49.011Z,14.6
2017-10-05T04:54:49.032Z,14.59
2017-10-05T04:55:49.057Z,14.72
2017-10-05T04:56:49.387Z,14.62
2017-10-05T04:57:49.098Z,14.7
2017-10-05T04:58:49.116Z,14.78
2017-10-05T04:59:49.145Z,14.78
2017-10-05T05:00:49.169Z,14.81
2017-10-05T05:01:49.176Z,14.73
2017-10-05T05:02:49.223Z,14.77
2017-10-05T05:03:49.609Z,14.69
2017-10-05T05:04:49.251Z,14.6
2017-10-05T05:05:49.263Z,14.72
2017-10-05T05:06:49.289Z,14.73
2017-10-05T05:07:49.305Z,14.68
2017-10-05T05:08:49.327Z,14.6
2017-10-05T05:09:49.340Z,14.65
2017-10-05T05:10:49.361Z,14.68
2017-10-05T05:11:49.386Z,14.58
2017-10-05T05:12:49.407Z,14.66
2017-10-05T05:13:49.427Z,14.81
2017-10-05T05:14:49.443Z,14.59
2017-10-05T05:15:49.467Z,14.47
2017-10-05T05:16:49.488Z,14.53
2017-10-05T05:17:49.504Z,14.54
2017-10-05T05:18:49.528Z,14.51
2017-10-05T05:19:49.562Z,14.59
2017-10-05T05:20:49.733Z,14.6
2017-10-05T05:21:49.589Z,14.6
2017-10-05T05:22:49.610Z,14.69
2017-10-05T05:23:49.951Z,14.72
2017-10-05T05:24:49.657Z,14.77
2017-10-05T05:25:49.676Z,14.81
2017-10-05T05:26:49.692Z,14.79
2017-10-05T05:27:49.715Z,14.85
2017-10-05T05:28:49.732Z,14.85
2017-10-05T05:29:49.764Z,14.89
2017-10-05T05:30:49.775Z,14.85
2017-10-05T05:31:49.796Z,14.86
2017-10-05T05:32:49.817Z,14.92
2017-10-05T05:33:49.839Z,14.84
2017-10-05T05:34:49.864Z,14.88
2017-10-05T05:35:49.934Z,14.86
2017-10-05T05:36:49.900Z,14.96
2017-10-05T05:37:49.918Z,14.97
2017-10-05T05:38:49.939Z,14.88
2017-10-05T05:39:50.023Z,14.86
2017-10-05T05:40:49.983Z,14.77
2017-10-05T05:41:50.264Z,14.84
2017-10-05T05:42:50.032Z,14.78
2017-10-05T05:43:50.041Z,14.77
2017-10-05T05:44:50.063Z,14.82
2017-10-05T05:45:50.091Z,14.72
2017-10-05T05:46:50.110Z,14.86
2017-10-05T05:47:50.129Z,14.85
2017-10-05T05:48:50.145Z,14.79
2017-10-05T05:49:50.171Z,14.69
2017-10-05T05:50:50.182Z,14.78
2017-10-05T05:51:50.209Z,14.73
2017-10-05T05:52:50.229Z,14.69
2017-10-05T05:53:50.249Z,14.62
2017-10-05T05:54:50.272Z,14.62
2017-10-05T05:55:50.291Z,14.68
2017-10-05T05:56:50.311Z,14.59
2017-10-05T05:57:50.331Z,14.66
2017-10-05T05:58:50.363Z,14.72
2017-10-05T05:59:50.683Z,14.72
2017-10-05T06:00:50.400Z,14.77
2017-10-05T06:01:50.412Z,14.7
2017-10-05T06:02:50.440Z,14.62
2017-10-05T06:03:50.456Z,14.69
2017-10-05T06:04:50.472Z,14.72
2017-10-05T06:05:50.803Z,14.7
2017-10-05T06:06:50.514Z,14.79
2017-10-05T06:07:50.584Z,14.62
2017-10-05T06:08:50.557Z,14.73
2017-10-05T06:09:50.578Z,14.77
2017-10-05T06:10:50.598Z,14.7
2017-10-05T06:11:50.617Z,14.86
2017-10-05T06:12:50.635Z,14.84
2017-10-05T06:13:50.657Z,14.78
2017-10-05T06:14:50.685Z,14.82
2017-10-05T06:15:50.700Z,14.78
2017-10-05T06:16:51.037Z,14.73
2017-10-05T06:17:50.737Z,14.91
2017-10-05T06:18:50.759Z,14.79
2017-10-05T06:19:50.781Z,14.84
2017-10-05T06:20:50.825Z,14.86
2017-10-05T06:21:50.822Z,14.88
2017-10-05T06:22:50.846Z,14.92
2017-10-05T06:23:50.864Z,14.97
2017-10-05T06:24:50.934Z,14.89
2017-10-05T06:25:50.909Z,14.96
2017-10-05T06:26:50.932Z,15.04
2017-10-05T06:27:50.945Z,15.04
2017-10-05T06:28:50.970Z,15.18
2017-10-05T06:29:50.996Z,15.06
2017-10-05T06:30:51.012Z,15.15
2017-10-05T06:31:51.044Z,15.02
2017-10-05T06:32:51.051Z,15.09
2017-10-05T06:33:51.080Z,15.11
2017-10-05T06:34:51.092Z,15.03
2017-10-05T06:35:51.120Z,15.03
2017-10-05T06:36:51.150Z,15.04
2017-10-05T06:37:51.466Z,15.02
2017-10-05T06:38:51.173Z,15.02
2017-10-05T06:39:51.199Z,15.22
2017-10-05T06:40:51.221Z,15.15
2017-10-05T06:41:51.240Z,15.07
2017-10-05T06:42:51.571Z,15.22
2017-10-05T06:43:51.280Z,15.19
2017-10-05T06:44:51.299Z,15.35
2017-10-05T06:45:51.321Z,15.37
2017-10-05T06:46:51.343Z,15.28
2017-10-05T06:47:51.362Z,15.15
2017-10-05T06:48:51.696Z,15.18
2017-10-05T06:49:51.417Z,15.18
2017-10-05T06:50:51.422Z,15.33
2017-10-05T06:51:51.453Z,15.33
2017-10-05T06:52:51.472Z,15.33
2017-10-05T06:53:51.810Z,15.47
2017-10-05T06:54:51.512Z,15.36
2017-10-05T06:55:51.529Z,15.52
2017-10-05T06:56:52.175Z,15.61
2017-10-05T06:57:51.576Z,15.65
2017-10-05T06:58:51.613Z,15.67
2017-10-05T06:59:51.615Z,15.76
2017-10-05T07:00:51.632Z,15.77
2017-10-05T07:01:51.707Z,15.83
2017-10-05T07:02:51.684Z,15.88
2017-10-05T07:03:51.701Z,15.79
2017-10-05T07:04:51.725Z,15.88
2017-10-05T07:05:51.742Z,15.84
2017-10-05T07:06:51.763Z,15.98
2017-10-05T07:07:51.783Z,16.1
2017-10-05T07:08:51.816Z,16.02
2017-10-05T07:09:52.173Z,16.12
2017-10-05T07:10:51.846Z,16.23
2017-10-05T07:11:51.871Z,16.04
2017-10-05T07:12:51.894Z,16
2017-10-05T07:13:51.914Z,15.98
2017-10-05T07:14:51.935Z,16.04
2017-10-05T07:15:52.017Z,16.08
2017-10-05T07:16:51.980Z,16.09
2017-10-05T07:17:52.000Z,16.1
2017-10-05T07:18:52.026Z,16.02
2017-10-05T07:19:52.054Z,15.98
2017-10-05T07:20:52.118Z,16.09
2017-10-05T07:21:52.091Z,16.17
2017-10-05T07:22:52.112Z,16.26
2017-10-05T07:23:52.133Z,16.2
2017-10-05T07:24:52.150Z,16.47
2017-10-05T07:25:52.501Z,16.43
2017-10-05T07:26:52.510Z,16.31
2017-10-05T07:27:52.215Z,16.32
2017-10-05T07:28:52.238Z,16.42
2017-10-05T07:29:52.259Z,16.49
2017-10-05T07:30:52.280Z,16.57
2017-10-05T07:31:52.302Z,16.53
2017-10-05T07:32:52.329Z,16.53
2017-10-05T07:33:52.345Z,16.58
2017-10-05T07:34:52.374Z,16.69
2017-10-05T07:35:52.441Z,16.65
2017-10-05T07:36:52.417Z,16.78
2017-10-05T07:37:52.446Z,16.9
2017-10-05T07:38:52.488Z,16.78
2017-10-05T07:39:52.480Z,16.89
2017-10-05T07:40:52.554Z,16.89
2017-10-05T07:41:52.523Z,16.97
2017-10-05T07:42:52.857Z,17.01
2017-10-05T07:43:52.565Z,17.14
2017-10-05T07:44:52.596Z,17.11
2017-10-05T07:45:52.610Z,17.08
2017-10-05T07:46:52.945Z,16.94
2017-10-05T07:47:52.965Z,16.94
2017-10-05T07:48:52.677Z,16.97
2017-10-05T07:49:52.706Z,17.14
2017-10-05T07:50:52.721Z,17.15
2017-10-05T07:51:52.749Z,17.05
2017-10-05T07:52:52.772Z,17.14
2017-10-05T07:53:52.791Z,17.26
2017-10-05T07:54:52.817Z,17.22
2017-10-05T07:55:52.839Z,17.2
2017-10-05T07:56:53.225Z,17.26
2017-10-05T07:57:52.889Z,17.19
2017-10-05T07:58:52.925Z,17.23
2017-10-05T07:59:52.940Z,17.19
2017-10-05T08:00:52.951Z,17.3
2017-10-05T08:01:52.981Z,17.33
2017-10-05T08:02:52.993Z,17.36
2017-10-05T08:03:53.014Z,17.48
2017-10-05T08:04:53.037Z,17.56
2017-10-05T08:05:53.063Z,17.65
2017-10-05T08:06:53.086Z,17.68
2017-10-05T08:07:53.116Z,17.76
2017-10-05T08:08:53.157Z,17.98
2017-10-05T08:09:53.455Z,18.04
2017-10-05T08:10:53.173Z,18.01
2017-10-05T08:11:53.200Z,17.86
2017-10-05T08:12:53.224Z,17.98
2017-10-05T08:13:53.245Z,18.07
2017-10-05T08:14:53.584Z,18.23
2017-10-05T08:15:54.490Z,18.26
2017-10-05T08:16:53.315Z,18.15
2017-10-05T08:17:53.344Z,18.34
2017-10-05T08:18:53.361Z,18.26
2017-10-05T08:19:53.383Z,18.44
2017-10-05T08:20:53.403Z,18.53
2017-10-05T08:21:53.439Z,18.63
2017-10-05T08:22:53.459Z,18.47
2017-10-05T08:23:53.478Z,18.49
2017-10-05T08:24:53.500Z,18.49
2017-10-05T08:25:53.521Z,18.59
2017-10-05T08:26:53.547Z,18.68
2017-10-05T08:27:53.570Z,18.7
2017-10-05T08:28:53.594Z,18.66
2017-10-05T08:29:53.615Z,18.65
2017-10-05T08:30:53.704Z,18.63
2017-10-05T08:31:53.668Z,18.62
2017-10-05T08:32:53.704Z,18.53
2017-10-05T08:33:53.713Z,18.65
2017-10-05T08:34:53.739Z,18.81
2017-10-05T08:35:53.754Z,18.96
2017-10-05T08:36:53.777Z,18.92
2017-10-05T08:37:53.808Z,18.98
2017-10-05T08:38:54.150Z,18.96
2017-10-05T08:39:53.853Z,19.11
2017-10-05T08:40:53.873Z,19.07
2017-10-05T08:41:53.902Z,19.15
2017-10-05T08:42:53.921Z,19.02
2017-10-05T08:43:53.947Z,19.08
2017-10-05T08:44:54.283Z,19.15
2017-10-05T08:45:53.997Z,19.39
2017-10-05T08:46:54.014Z,19.22
2017-10-05T08:47:54.039Z,19.18
2017-10-05T08:48:54.703Z,19.26
2017-10-05T08:49:54.086Z,19.45
2017-10-05T08:50:54.110Z,19.44
2017-10-05T08:51:54.135Z,19.41
2017-10-05T08:52:54.161Z,19.51
2017-10-05T08:53:54.191Z,19.58
2017-10-05T08:54:54.202Z,19.64
2017-10-05T08:55:54.226Z,19.7
2017-10-05T08:56:54.569Z,19.84
2017-10-05T08:57:54.279Z,19.82
2017-10-05T08:58:54.612Z,19.82
2017-10-05T08:59:54.323Z,19.81
2017-10-05T09:00:54.349Z,19.76
2017-10-05T09:01:54.372Z,19.84
2017-10-05T09:02:54.391Z,19.7
2017-10-05T09:03:54.729Z,19.58
2017-10-05T09:04:54.442Z,19.52
2017-10-05T09:05:54.472Z,19.51
2017-10-05T09:06:54.803Z,19.59
2017-10-05T09:07:54.512Z,19.55
2017-10-05T09:08:54.540Z,19.64
2017-10-05T09:09:54.565Z,19.67
2017-10-05T09:10:54.605Z,19.59
2017-10-05T09:11:54.607Z,19.73
2017-10-05T09:12:54.954Z,19.84
2017-10-05T09:13:54.657Z,19.92
2017-10-05T09:14:54.684Z,19.96
2017-10-05T09:15:54.708Z,20.18
2017-10-05T09:16:54.731Z,20.14
2017-10-05T09:17:54.761Z,20.29
2017-10-05T09:18:54.777Z,20.36
2017-10-05T09:19:54.801Z,20.39
2017-10-05T09:20:54.827Z,20.25
2017-10-05T09:21:54.906Z,20.32
2017-10-05T09:22:54.883Z,20.24
2017-10-05T09:23:54.906Z,20.26
2017-10-05T09:24:54.926Z,20.29
2017-10-05T09:25:54.948Z,20.32
2017-10-05T09:26:54.979Z,20.48
2017-10-05T09:27:54.996Z,20.6
2017-10-05T09:28:55.019Z,20.44
2017-10-05T09:29:55.045Z,20.59
2017-10-05T09:30:55.071Z,20.55
2017-10-05T09:31:55.095Z,20.66
2017-10-05T09:32:55.119Z,20.59
2017-10-05T09:33:55.142Z,20.52
2017-10-05T09:34:55.164Z,20.41
2017-10-05T09:35:55.198Z,20.6
2017-10-05T09:36:55.225Z,20.51
2017-10-05T09:37:55.240Z,20.52
2017-10-05T09:38:55.267Z,20.77
2017-10-05T09:39:55.287Z,20.75
2017-10-05T09:40:55.362Z,20.6
2017-10-05T09:41:55.344Z,20.69
2017-10-05T09:42:55.372Z,20.67
2017-10-05T09:43:55.397Z,20.66
2017-10-05T09:44:55.414Z,20.75
2017-10-05T09:45:55.438Z,20.74
2017-10-05T09:46:55.465Z,20.63
2017-10-05T09:47:55.493Z,20.84
2017-10-05T09:48:55.513Z,21.05
2017-10-05T09:49:55.546Z,21.03
2017-10-05T09:50:55.579Z,21.05
2017-10-05T09:51:55.585Z,21.05
2017-10-05T09:52:55.615Z,21.18
2017-10-05T09:53:55.635Z,21.17
2017-10-05T09:54:55.660Z,21.27
2017-10-05T09:55:55.735Z,21.29
2017-10-05T09:56:55.720Z,21.37
2017-10-05T09:57:55.756Z,21.32
2017-10-05T09:58:55.763Z,21.14
2017-10-05T09:59:55.786Z,21.25
2017-10-05T10:00:55.818Z,21.5
2017-10-05T10:01:55.838Z,21.64
2017-10-05T10:02:55.864Z,21.76
2017-10-05T10:03:55.886Z,21.69
2017-10-05T10:04:56.600Z,21.88
2017-10-05T10:05:55.939Z,21.99
2017-10-05T10:06:55.965Z,22.17
2017-10-05T10:07:56.305Z,22.41
2017-10-05T10:08:56.020Z,22.41
2017-10-05T10:09:56.045Z,22.69
2017-10-05T10:10:56.123Z,22.63
2017-10-05T10:11:56.101Z,22.93
2017-10-05T10:12:56.131Z,23.23
2017-10-05T10:13:56.159Z,23.48
2017-10-05T10:14:56.188Z,23.56
2017-10-05T10:15:56.211Z,23.73
2017-10-05T10:16:56.244Z,23.74
2017-10-05T10:17:56.268Z,23.58
2017-10-05T10:18:56.617Z,23.37
2017-10-05T10:19:56.327Z,23.59
2017-10-05T10:20:56.369Z,23.84
2017-10-05T10:21:56.418Z,24.05
2017-10-05T10:22:56.431Z,24.24
2017-10-05T10:23:56.450Z,24.16
2017-10-05T10:24:56.477Z,24.48
2017-10-05T10:25:56.559Z,24.32
2017-10-05T10:26:56.540Z,24.4
2017-10-05T10:27:56.879Z,24.65
2017-10-05T10:28:56.924Z,24.6
2017-10-05T10:29:56.628Z,24.5
2017-10-05T10:30:56.674Z,24.48
2017-10-05T10:31:56.686Z,24.24
2017-10-05T10:32:56.723Z,24.3
2017-10-05T10:33:56.754Z,24.29
2017-10-05T10:34:56.775Z,24.39
2017-10-05T10:35:56.813Z,24.53
2017-10-05T10:36:56.839Z,24.78
2017-10-05T10:37:57.180Z,24.61
2017-10-05T10:38:56.902Z,24.51
2017-10-05T10:39:56.930Z,24.42
2017-10-05T10:40:57.013Z,24.57
2017-10-05T10:41:56.999Z,24.74
2017-10-05T10:42:57.027Z,24.73
2017-10-05T10:43:57.060Z,24.32
2017-10-05T10:44:57.085Z,24.39
2017-10-05T10:45:57.124Z,24.65
2017-10-05T10:46:57.457Z,24.65
2017-10-05T10:47:57.179Z,24.96
2017-10-05T10:48:57.211Z,24.88
2017-10-05T10:49:57.566Z,24.99
2017-10-05T10:50:57.277Z,25.08
2017-10-05T10:51:57.302Z,24.78
2017-10-05T10:52:57.338Z,24.86
2017-10-05T10:53:57.368Z,25.07
2017-10-05T10:54:57.402Z,25.13
2017-10-05T10:55:57.426Z,25.35
2017-10-05T10:56:57.461Z,25.33
2017-10-05T10:57:57.501Z,25.38
2017-10-05T10:58:57.526Z,25.43
2017-10-05T10:59:57.561Z,25.62
2017-10-05T11:00:57.586Z,25.58
2017-10-05T11:01:57.629Z,25.68
2017-10-05T11:02:57.655Z,25.55
2017-10-05T11:03:57.697Z,25.35
2017-10-05T11:04:57.725Z,25.23
2017-10-05T11:05:57.750Z,25.4
2017-10-05T11:06:57.781Z,25.47
2017-10-05T11:07:57.810Z,25.46
2017-10-05T11:08:57.844Z,25.44
2017-10-05T11:09:57.875Z,25.62
2017-10-05T11:10:58.225Z,25.68
2017-10-05T11:11:57.935Z,25.5
2017-10-05T11:12:58.286Z,25.69
2017-10-05T11:13:58.002Z,25.9
2017-10-05T11:14:58.048Z,25.8
2017-10-05T11:15:58.070Z,25.96
2017-10-05T11:16:58.106Z,26.19
2017-10-05T11:17:58.162Z,26.21
2017-10-05T11:18:58.167Z,26.21
2017-10-05T11:19:58.202Z,26.19
2017-10-05T11:20:58.234Z,26.34
2017-10-05T11:21:58.259Z,26.74
2017-10-05T11:22:58.604Z,26.97
2017-10-05T11:23:58.332Z,26.53
2017-10-05T11:24:58.677Z,26.78
2017-10-05T11:25:58.393Z,26.63
2017-10-05T11:26:58.426Z,26.8
2017-10-05T11:27:58.456Z,27.12
2017-10-05T11:28:59.130Z,27.39
2017-10-05T11:29:58.525Z,27.17
2017-10-05T11:30:58.557Z,27.48
2017-10-05T11:31:58.643Z,27.17
2017-10-05T11:32:58.621Z,27.05
2017-10-05T11:33:58.652Z,26.63
2017-10-05T11:34:58.686Z,27.02
2017-10-05T11:35:58.723Z,27.17
2017-10-05T11:36:58.767Z,27.39
2017-10-05T11:37:58.787Z,27.42
2017-10-05T11:38:58.821Z,27.2
2017-10-05T11:39:59.228Z,27
2017-10-05T11:40:58.897Z,26.89
2017-10-05T11:41:58.930Z,27.08
2017-10-05T11:42:58.959Z,27.03
2017-10-05T11:43:59.016Z,26.71
2017-10-05T11:44:59.021Z,26.66
2017-10-05T11:45:59.055Z,26.59
2017-10-05T11:46:59.084Z,26.84
2017-10-05T11:47:59.120Z,27.32
2017-10-05T11:48:59.156Z,27.64
2017-10-05T11:49:59.192Z,27.89
2017-10-05T11:50:59.218Z,27.39
2017-10-05T11:51:59.257Z,27.15
2017-10-05T11:52:59.283Z,27.05
2017-10-05T11:53:59.327Z,27.29
2017-10-05T11:54:59.359Z,27.21
2017-10-05T11:55:59.390Z,27.45
2017-10-05T11:56:59.734Z,27.2
2017-10-05T11:57:59.770Z,27.48
2017-10-05T11:58:59.504Z,27.47
2017-10-05T11:59:59.526Z,27.71
2017-10-05T12:00:59.865Z,28.12
2017-10-05T12:01:59.588Z,28.2
2017-10-05T12:02:59.939Z,28.41
2017-10-05T12:03:59.660Z,28.33
2017-10-05T12:04:59.691Z,28.42
2017-10-05T12:05:59.722Z,28.88
2017-10-05T12:06:59.758Z,29.17
2017-10-05T12:07:59.795Z,28.88
2017-10-05T12:08:59.827Z,28.45
2017-10-05T12:09:59.876Z,28.38
2017-10-05T12:10:59.897Z,28.39
2017-10-05T12:11:59.929Z,28.67
2017-10-05T12:13:00.272Z,28.57
2017-10-05T12:13:59.999Z,29.07
2017-10-05T12:15:00.028Z,28.42
2017-10-05T12:16:00.379Z,28
2017-10-05T12:17:00.101Z,27.85
2017-10-05T12:18:00.136Z,28.11
2017-10-05T12:19:00.170Z,28.38
2017-10-05T12:20:00.201Z,28.63
2017-10-05T12:21:00.247Z,28.82
2017-10-05T12:22:00.277Z,28.51
2017-10-05T12:23:00.365Z,28.45
2017-10-05T12:24:00.343Z,28.19
2017-10-05T12:25:00.376Z,27.86
2017-10-05T12:26:00.417Z,27.92
2017-10-05T12:27:00.443Z,28.2
2017-10-05T12:28:00.487Z,28.19
2017-10-05T12:29:00.516Z,28.11
2017-10-05T12:30:00.550Z,28.69
2017-10-05T12:31:00.580Z,29.12
2017-10-05T12:32:00.617Z,29.32
2017-10-05T12:33:00.649Z,29.14
2017-10-05T12:34:00.686Z,28.41
2017-10-05T12:35:00.716Z,27.93
2017-10-05T12:36:00.751Z,28.15
2017-10-05T12:37:00.783Z,27.98
2017-10-05T12:38:00.869Z,27.77
2017-10-05T12:39:00.855Z,27.49
2017-10-05T12:40:01.191Z,27.3
2017-10-05T12:41:00.918Z,27.17
2017-10-05T12:42:00.947Z,27
2017-10-05T12:43:00.990Z,27.25
2017-10-05T12:44:01.029Z,27.18
2017-10-05T12:45:01.071Z,26.59
2017-10-05T12:46:01.081Z,26.56
2017-10-05T12:47:01.432Z,26.43
2017-10-05T12:48:01.694Z,26.29
2017-10-05T12:49:01.881Z,25.83
2017-10-05T12:50:01.523Z,25.51
2017-10-05T12:51:01.238Z,25.5
2017-10-05T12:52:01.577Z,25.58
2017-10-05T12:53:01.298Z,25.43
2017-10-05T12:54:01.328Z,25.44
2017-10-05T12:55:01.752Z,25.38
2017-10-05T12:56:01.397Z,24.96